createdAt,value
2018-12-18T00:02:41.355Z,-1.30
2018-12-18T00:05:15.582Z,-1.30
2018-12-18T00:07:44.632Z,-1.20
2018-12-18T01:02:37.458Z,-1.20
2018-12-18T01:05:06.485Z,-1.20
2018-12-18T01:07:35.540Z,-1.10
2018-12-18T01:10:04.843Z,-1.00
2018-12-18T02:02:37.056Z,-1.30
2018-12-18T02:05:06.165Z,-1.20
2018-12-18T02:07:35.172Z,-1.20
2018-12-18T02:10:04.211Z,-1.00
2018-12-18T03:02:38.990Z,-1.30
2018-12-18T03:05:08.207Z,-1.20
2018-12-18T03:07:37.262Z,-1.10
2018-12-18T04:02:40.250Z,-1.30
2018-12-18T04:05:09.270Z,-1.30
2018-12-18T04:07:38.393Z,-1.20
2018-12-18T05:03:02.439Z,-1.40
2018-12-18T05:05:31.450Z,-1.40
2018-12-18T05:08:00.457Z,-1.20
2018-12-18T06:02:39.406Z,-1.40
2018-12-18T06:05:08.453Z,-1.40
2018-12-18T06:07:37.488Z,-1.30
2018-12-18T07:03:04.590Z,-1.30
2018-12-18T07:05:33.716Z,-1.20
2018-12-18T07:08:02.686Z,-1.10
2018-12-18T07:10:31.782Z,-0.90
2018-12-18T08:03:15.482Z,-0.90
2018-12-18T08:05:59.246Z,-0.80
2018-12-18T08:08:28.407Z,-0.60
2018-12-18T09:02:40.582Z,0.10
2018-12-18T09:05:09.750Z,0.30
2018-12-18T09:07:38.729Z,0.40
2018-12-18T10:02:41.310Z,0.60
2018-12-18T10:05:10.328Z,0.60
2018-12-18T10:07:39.370Z,0.70
2018-12-18T11:02:42.351Z,0.70
2018-12-18T11:05:11.809Z,0.90
2018-12-18T11:07:40.950Z,1.00
2018-12-18T12:02:42.968Z,0.40
2018-12-18T12:05:11.317Z,0.40
2018-12-18T12:07:44.051Z,0.50
2018-12-18T13:02:39.601Z,0.20
2018-12-18T13:05:08.715Z,0.20
2018-12-18T13:07:37.768Z,0.30
2018-12-18T14:02:37.201Z,-0.40
2018-12-18T14:05:06.479Z,-0.40
2018-12-18T14:07:35.478Z,-0.40
2018-12-18T14:10:05.256Z,-0.20
2018-12-18T15:02:37.354Z,-0.80
2018-12-18T15:05:06.430Z,-0.80
2018-12-18T15:07:35.638Z,-0.60
2018-12-18T15:10:04.782Z,-0.40
2018-12-18T16:02:43.277Z,-1.00
2018-12-18T16:05:13.226Z,-0.90
2018-12-18T16:07:42.243Z,-0.80
2018-12-18T16:10:11.330Z,-0.70
2018-12-18T17:02:50.034Z,-1.20
2018-12-18T17:05:19.083Z,-1.10
2018-12-18T17:07:48.164Z,-1.00
2018-12-18T17:10:17.233Z,-0.90
2018-12-18T18:02:37.720Z,-1.40
2018-12-18T18:05:06.811Z,-1.40
2018-12-18T18:07:36.063Z,-1.20
2018-12-18T18:10:05.465Z,-1.00
2018-12-18T19:02:46.893Z,-3.00
2018-12-18T19:05:23.665Z,-2.90
2018-12-18T19:07:56.621Z,-2.60
2018-12-18T20:02:39.470Z,-2.10
2018-12-18T20:05:08.535Z,-2.10
2018-12-18T20:07:37.575Z,-1.90
2018-12-18T21:02:37.450Z,-2.60
2018-12-18T21:05:06.612Z,-2.50
2018-12-18T21:07:35.641Z,-2.40
2018-12-18T21:10:05.550Z,-2.20
2018-12-18T22:02:47.822Z,-2.50
2018-12-18T22:05:16.791Z,-2.50
2018-12-18T22:07:45.807Z,-2.30
2018-12-18T23:02:37.479Z,-2.60
2018-12-18T23:05:08.622Z,-2.60
2018-12-18T23:07:37.770Z,-2.50
